createdAt,value
2018-01-27T00:01:51.971Z,41.57
2018-01-27T00:04:19.600Z,36.80
2018-01-27T00:06:47.267Z,38.23
2018-01-27T00:09:15.068Z,32.00
2018-01-27T00:11:42.700Z,34.07
2018-01-27T00:14:10.425Z,38.77
2018-01-27T00:16:38.069Z,33.67
2018-01-27T00:19:06.464Z,38.03
2018-01-27T00:21:34.130Z,39.53
2018-01-27T00:24:01.814Z,37.97
2018-01-27T00:26:29.492Z,40.97
2018-01-27T00:28:57.163Z,39.40
2018-01-27T00:31:24.839Z,43.10
2018-01-27T00:33:53.284Z,43.30
2018-01-27T00:36:20.966Z,33.93
2018-01-27T00:38:48.649Z,41.73
2018-01-27T00:41:17.085Z,35.53
2018-01-27T00:43:44.772Z,35.53
2018-01-27T00:46:12.451Z,35.93
2018-01-27T00:48:40.860Z,33.43
2018-01-27T00:51:08.524Z,35.30
2018-01-27T00:53:36.198Z,34.33
2018-01-27T00:56:03.868Z,34.63
2018-01-27T00:58:31.608Z,38.57
2018-01-27T01:00:59.288Z,34.87
2018-01-27T01:03:26.947Z,34.50
2018-01-27T01:05:54.629Z,35.53
2018-01-27T01:08:22.310Z,35.20
2018-01-27T01:10:50.733Z,35.50
2018-01-27T01:13:18.415Z,34.87
2018-01-27T01:15:46.104Z,32.70
2018-01-27T01:18:13.756Z,28.50
2018-01-27T01:20:41.453Z,32.50
2018-01-27T01:23:09.147Z,34.13
2018-01-27T01:25:36.816Z,33.10
2018-01-27T01:28:04.501Z,32.37
2018-01-27T01:30:32.174Z,35.97
2018-01-27T01:33:00.640Z,35.73
2018-01-27T01:35:28.333Z,37.87
2018-01-27T01:37:56.015Z,29.97
2018-01-27T01:40:23.671Z,27.40
2018-01-27T01:43:14.735Z,34.80
2018-01-27T01:45:43.396Z,34.03
2018-01-27T01:48:11.349Z,36.00
2018-01-27T01:50:39.905Z,32.63
2018-01-27T01:53:09.664Z,40.90
2018-01-27T01:55:37.598Z,38.30
2018-01-27T01:58:05.308Z,41.10
2018-01-27T02:00:33.789Z,32.40
2018-01-27T02:03:02.285Z,34.67
2018-01-27T02:05:30.044Z,39.07
2018-01-27T02:07:58.472Z,37.03
2018-01-27T02:10:26.142Z,35.00
2018-01-27T02:12:53.808Z,37.87
2018-01-27T02:15:21.495Z,33.17
2018-01-27T02:17:49.916Z,31.30
2018-01-27T02:20:17.650Z,36.67
2018-01-27T02:22:45.333Z,32.40
2018-01-27T02:25:12.973Z,29.63
2018-01-27T02:27:40.657Z,36.30
2018-01-27T02:30:08.433Z,39.13
2018-01-27T02:32:36.104Z,38.67
2018-01-27T02:35:03.780Z,34.93
2018-01-27T02:37:31.470Z,37.97
2018-01-27T02:39:59.892Z,33.80
2018-01-27T02:42:27.586Z,38.00
2018-01-27T02:44:55.258Z,35.60
2018-01-27T02:47:23.659Z,34.93
2018-01-27T02:49:51.347Z,38.33
2018-01-27T02:52:19.052Z,35.70
2018-01-27T02:54:46.676Z,37.97
2018-01-27T02:57:14.340Z,43.93
2018-01-27T02:59:42.008Z,42.50
2018-01-27T03:02:09.650Z,48.70
2018-01-27T03:04:37.345Z,51.73
2018-01-27T03:07:05.004Z,39.23
2018-01-27T03:09:32.661Z,45.90
2018-01-27T03:12:00.331Z,42.63
2018-01-27T03:14:28.023Z,52.17
2018-01-27T03:16:55.686Z,42.80
2018-01-27T03:19:23.370Z,45.80
2018-01-27T03:21:51.084Z,44.40
2018-01-27T03:24:19.513Z,44.17
2018-01-27T03:26:47.197Z,42.73
2018-01-27T03:29:14.882Z,46.67
2018-01-27T03:31:43.314Z,45.17
2018-01-27T03:34:11.009Z,52.53
2018-01-27T03:36:38.697Z,42.30
2018-01-27T03:39:07.097Z,42.67
2018-01-27T03:41:34.776Z,42.97
2018-01-27T03:44:02.453Z,48.63
2018-01-27T03:46:30.098Z,45.20
2018-01-27T03:48:57.778Z,41.53
2018-01-27T03:51:25.448Z,46.07
2018-01-27T03:53:53.090Z,47.33
2018-01-27T03:56:20.779Z,51.83
2018-01-27T03:58:49.228Z,48.80
2018-01-27T04:01:16.869Z,40.10
2018-01-27T04:03:44.586Z,41.10
2018-01-27T04:06:13.041Z,41.03
2018-01-27T04:08:40.684Z,45.83
2018-01-27T04:11:08.376Z,43.37
2018-01-27T04:13:36.828Z,41.00
2018-01-27T04:16:04.465Z,42.93
2018-01-27T04:18:32.964Z,46.43
2018-01-27T04:21:00.644Z,49.60
2018-01-27T04:23:28.295Z,43.57
2018-01-27T04:25:55.982Z,51.90
2018-01-27T04:28:24.435Z,45.27
2018-01-27T04:30:52.085Z,46.23
2018-01-27T04:33:19.777Z,42.33
2018-01-27T04:35:48.295Z,42.30
2018-01-27T04:38:15.946Z,44.60
2018-01-27T04:40:43.638Z,43.37
2018-01-27T04:43:11.334Z,42.40
2018-01-27T04:45:39.008Z,45.90
2018-01-27T04:48:07.456Z,59.90
2018-01-27T04:50:35.141Z,55.27
2018-01-27T04:53:03.557Z,47.27
2018-01-27T04:55:31.231Z,52.17
2018-01-27T04:57:58.933Z,44.83
2018-01-27T05:00:26.579Z,45.90
2018-01-27T05:02:54.246Z,57.67
2018-01-27T05:05:21.922Z,45.97
2018-01-27T05:07:50.398Z,52.93
2018-01-27T05:10:18.090Z,55.13
2018-01-27T05:12:45.757Z,57.83
2018-01-27T05:15:13.410Z,56.67
2018-01-27T05:17:41.083Z,53.50
2018-01-27T05:20:08.794Z,49.23
2018-01-27T05:22:36.428Z,49.00
2018-01-27T05:25:04.128Z,50.70
2018-01-27T05:27:32.600Z,49.00
2018-01-27T05:30:00.275Z,53.47
2018-01-27T05:32:28.772Z,55.57
2018-01-27T05:34:56.450Z,57.63
2018-01-27T05:37:24.091Z,54.63
2018-01-27T05:39:51.769Z,53.70
2018-01-27T05:42:19.463Z,50.87
2018-01-27T05:44:47.110Z,54.40
2018-01-27T05:47:14.794Z,52.47
2018-01-27T05:49:42.459Z,57.33
2018-01-27T05:52:10.097Z,55.73
2018-01-27T05:54:37.781Z,57.50
2018-01-27T05:57:05.455Z,60.93
2018-01-27T05:59:33.855Z,60.03
2018-01-27T06:02:01.530Z,56.73
2018-01-27T06:04:29.240Z,66.87
2018-01-27T06:06:56.912Z,64.23
2018-01-27T06:09:24.589Z,66.30
2018-01-27T06:11:52.305Z,61.50
2018-01-27T06:14:19.956Z,68.60
2018-01-27T06:16:48.442Z,62.67
2018-01-27T06:19:16.164Z,54.80
2018-01-27T06:21:43.869Z,54.73
2018-01-27T06:24:11.593Z,67.30
2018-01-27T06:26:39.269Z,67.03
2018-01-27T06:29:06.919Z,75.90
2018-01-27T06:31:34.597Z,73.90
2018-01-27T06:34:02.264Z,71.70
2018-01-27T06:36:29.919Z,64.97
2018-01-27T06:38:57.620Z,64.07
2018-01-27T06:41:26.063Z,65.50
2018-01-27T06:43:53.700Z,60.70
2018-01-27T06:46:21.397Z,85.10
2018-01-27T06:48:49.074Z,70.13
2018-01-27T06:51:17.479Z,72.80
2018-01-27T06:53:45.165Z,86.40
2018-01-27T06:56:12.831Z,75.70
2018-01-27T06:58:40.480Z,89.20
2018-01-27T07:01:08.153Z,80.47
2018-01-27T07:03:35.821Z,89.20
2018-01-27T07:06:03.481Z,98.07
2018-01-27T07:08:31.172Z,88.53
2018-01-27T07:10:58.859Z,91.37
2018-01-27T07:13:26.520Z,88.00
2018-01-27T07:15:54.267Z,100.70
2018-01-27T07:18:22.762Z,124.10
2018-01-27T07:20:50.469Z,96.97
2018-01-27T07:23:18.212Z,112.10
2018-01-27T07:25:45.867Z,91.20
2018-01-27T07:28:13.500Z,86.87
2018-01-27T07:30:41.212Z,101.53
2018-01-27T07:33:09.666Z,103.03
2018-01-27T07:35:37.374Z,93.80
2018-01-27T07:38:05.149Z,106.43
2018-01-27T07:40:33.588Z,103.60
2018-01-27T07:43:01.254Z,113.87
2018-01-27T07:45:28.942Z,104.10
2018-01-27T07:47:56.680Z,111.17
2018-01-27T07:50:24.345Z,118.90
2018-01-27T07:52:52.015Z,111.67
2018-01-27T07:55:19.695Z,121.63
2018-01-27T07:57:48.122Z,120.43
2018-01-27T08:00:15.820Z,122.87
2018-01-27T08:02:44.273Z,113.20
2018-01-27T08:05:11.955Z,120.50
2018-01-27T08:07:39.631Z,115.43
2018-01-27T08:10:08.068Z,117.77
2018-01-27T08:12:35.732Z,124.30
2018-01-27T08:15:03.453Z,127.50
2018-01-27T08:17:31.149Z,115.67
2018-01-27T08:19:58.800Z,134.80
2018-01-27T08:22:26.471Z,132.93
2018-01-27T08:24:54.177Z,129.77
2018-01-27T08:27:22.589Z,136.73
2018-01-27T08:29:51.033Z,146.40
2018-01-27T08:32:19.469Z,98.73
2018-01-27T08:34:47.123Z,134.53
2018-01-27T08:37:14.796Z,149.17
2018-01-27T08:39:42.540Z,136.63
2018-01-27T08:42:10.191Z,128.57
2018-01-27T08:44:37.864Z,129.43
2018-01-27T08:47:05.551Z,166.20
2018-01-27T08:49:33.188Z,133.80
2018-01-27T08:52:00.845Z,147.90
2018-01-27T08:54:28.586Z,136.67
2018-01-27T08:56:56.266Z,137.30
2018-01-27T08:59:23.937Z,118.00
2018-01-27T09:01:51.605Z,121.30
2018-01-27T09:04:19.252Z,156.13
2018-01-27T09:06:46.920Z,164.83
2018-01-27T09:09:14.580Z,151.70
2018-01-27T09:11:42.236Z,125.83
2018-01-27T09:14:09.918Z,140.87
2018-01-27T09:16:37.585Z,138.53
2018-01-27T09:19:05.235Z,141.80
2018-01-27T09:21:32.940Z,135.00
2018-01-27T09:24:00.637Z,140.07
2018-01-27T09:26:28.302Z,109.20
2018-01-27T09:28:55.990Z,114.87
2018-01-27T09:31:23.660Z,112.47
2018-01-27T09:33:52.058Z,125.50
2018-01-27T09:36:19.742Z,123.30
2018-01-27T09:38:47.421Z,107.77
2018-01-27T09:41:15.101Z,108.40
2018-01-27T09:43:42.785Z,117.37
2018-01-27T09:46:11.224Z,130.10
2018-01-27T09:48:38.875Z,113.60
2018-01-27T09:51:06.784Z,110.13
2018-01-27T09:53:35.222Z,131.27
2018-01-27T09:56:02.864Z,122.87
2018-01-27T09:58:30.535Z,118.73
2018-01-27T10:00:58.244Z,116.70
2018-01-27T10:03:26.655Z,119.90
2018-01-27T10:05:54.401Z,108.20
2018-01-27T10:08:22.081Z,125.37
2018-01-27T10:10:49.737Z,126.17
2018-01-27T10:13:17.399Z,113.03
2018-01-27T10:15:45.065Z,117.07
2018-01-27T10:18:12.724Z,121.63
2018-01-27T10:20:40.406Z,121.97
2018-01-27T10:23:08.088Z,120.00
2018-01-27T10:25:35.829Z,111.77
2018-01-27T10:28:03.618Z,113.17
2018-01-27T10:30:31.296Z,108.43
2018-01-27T10:32:59.709Z,100.33
2018-01-27T10:35:27.375Z,87.80
2018-01-27T10:37:56.136Z,102.60
2018-01-27T10:40:23.773Z,108.17
2018-01-27T10:42:53.119Z,111.50
2018-01-27T10:45:20.824Z,110.53
2018-01-27T10:47:48.476Z,102.80
2018-01-27T10:50:16.191Z,112.37
2018-01-27T10:52:43.945Z,113.23
2018-01-27T10:55:11.677Z,92.37
2018-01-27T10:57:39.360Z,86.10
2018-01-27T11:00:07.083Z,97.27
2018-01-27T11:02:34.972Z,103.17
2018-01-27T11:05:03.458Z,98.53
2018-01-27T11:07:31.912Z,94.90
2018-01-27T11:09:59.567Z,95.73
2018-01-27T11:12:27.255Z,95.67
2018-01-27T11:14:56.529Z,87.93
2018-01-27T11:17:24.532Z,103.60
2018-01-27T11:19:52.251Z,99.90
2018-01-27T11:22:20.778Z,109.20
2018-01-27T11:24:48.424Z,120.83
2018-01-27T11:27:17.043Z,109.00
2018-01-27T11:29:44.807Z,111.40
2018-01-27T11:32:12.579Z,118.97
2018-01-27T11:34:40.273Z,113.00
2018-01-27T11:37:07.953Z,116.97
2018-01-27T11:39:36.382Z,103.73
2018-01-27T11:42:04.084Z,116.10
2018-01-27T11:44:32.520Z,113.97
2018-01-27T11:47:00.156Z,114.07
2018-01-27T11:49:27.870Z,101.07
2018-01-27T11:51:55.549Z,101.43
2018-01-27T11:54:23.955Z,97.50
2018-01-27T11:56:51.682Z,100.30
2018-01-27T11:59:20.122Z,106.93
2018-01-27T12:01:47.799Z,102.67
2018-01-27T12:04:15.527Z,96.37
2018-01-27T12:06:43.253Z,93.70
2018-01-27T12:09:11.668Z,90.43
2018-01-27T12:11:39.350Z,84.27
2018-01-27T12:14:07.033Z,88.43
2018-01-27T12:16:35.840Z,79.43
2018-01-27T12:19:04.316Z,76.90
2018-01-27T12:21:32.798Z,64.63
2018-01-27T12:24:01.240Z,81.30
2018-01-27T12:26:28.917Z,70.23
2018-01-27T12:28:56.600Z,60.73
2018-01-27T12:31:25.061Z,60.97
2018-01-27T12:33:52.737Z,67.53
2018-01-27T12:36:21.180Z,63.67
2018-01-27T12:38:48.827Z,74.10
2018-01-27T12:41:16.518Z,63.90
2018-01-27T12:43:44.188Z,57.50
2018-01-27T12:46:12.601Z,63.90
2018-01-27T12:48:40.302Z,59.73
2018-01-27T12:51:07.977Z,59.80
2018-01-27T12:53:35.635Z,58.27
2018-01-27T12:56:03.308Z,65.63
2018-01-27T12:58:31.051Z,63.57
2018-01-27T13:00:58.683Z,58.40
2018-01-27T13:03:26.361Z,58.30
2018-01-27T13:05:54.037Z,66.43
2018-01-27T13:08:21.706Z,64.90
2018-01-27T13:10:49.389Z,60.40
2018-01-27T13:13:17.859Z,55.57
2018-01-27T13:15:46.277Z,55.60
2018-01-27T13:18:14.069Z,58.30
2018-01-27T13:20:41.872Z,62.07
2018-01-27T13:23:09.617Z,52.07
2018-01-27T13:25:38.411Z,52.37
2018-01-27T13:28:06.268Z,59.33
2018-01-27T13:30:34.705Z,55.60
2018-01-27T13:33:03.096Z,51.17
2018-01-27T13:35:30.968Z,57.40
2018-01-27T13:37:58.977Z,49.90
2018-01-27T13:40:26.661Z,45.40
2018-01-27T13:42:54.495Z,47.43
2018-01-27T13:45:23.323Z,50.90
2018-01-27T13:47:51.030Z,47.53
2018-01-27T13:50:19.944Z,44.43
2018-01-27T13:52:47.748Z,52.83
2018-01-27T13:55:16.336Z,52.03
2018-01-27T13:57:44.350Z,45.87
2018-01-27T14:00:13.122Z,55.63
2018-01-27T14:02:42.251Z,48.20
2018-01-27T14:05:10.267Z,58.97
2018-01-27T14:07:38.976Z,50.80
2018-01-27T14:10:07.049Z,54.67
2018-01-27T14:12:35.573Z,56.70
2018-01-27T14:15:04.234Z,47.97
2018-01-27T14:17:31.977Z,53.10
2018-01-27T14:19:59.690Z,46.30
2018-01-27T14:22:27.375Z,43.43
2018-01-27T14:24:55.070Z,48.37
2018-01-27T14:27:22.757Z,43.60
2018-01-27T14:29:50.463Z,44.00
2018-01-27T14:32:18.196Z,49.03
2018-01-27T14:34:45.943Z,44.47
2018-01-27T14:37:13.716Z,46.43
2018-01-27T14:39:42.255Z,57.13
2018-01-27T14:42:10.085Z,52.00
2018-01-27T14:44:37.826Z,56.17
2018-01-27T14:47:05.686Z,54.83
2018-01-27T14:49:33.550Z,51.67
2018-01-27T14:52:01.352Z,55.50
2018-01-27T14:54:29.892Z,62.33
2018-01-27T14:56:57.747Z,58.23
2018-01-27T14:59:26.314Z,55.50
2018-01-27T15:01:54.072Z,63.80
2018-01-27T15:04:22.266Z,55.13
2018-01-27T15:06:50.071Z,54.43
2018-01-27T15:09:18.118Z,52.53
2018-01-27T15:11:47.207Z,58.80
2018-01-27T15:14:14.859Z,66.30
2018-01-27T15:16:42.684Z,60.53
2018-01-27T15:19:10.524Z,55.17
2018-01-27T15:21:38.934Z,63.47
2018-01-27T15:24:06.648Z,57.87
2018-01-27T15:26:34.426Z,61.73
2018-01-27T15:29:02.853Z,59.90
2018-01-27T15:31:30.555Z,64.27
2018-01-27T15:33:58.399Z,64.90
2018-01-27T15:36:26.136Z,62.03
2018-01-27T15:38:53.959Z,59.43
2018-01-27T15:41:22.552Z,62.00
2018-01-27T15:43:50.240Z,57.80
2018-01-27T15:46:17.915Z,60.07
2018-01-27T15:48:45.610Z,59.27
2018-01-27T15:51:13.511Z,57.50
2018-01-27T15:53:42.323Z,58.93
2018-01-27T15:56:14.275Z,69.30
2018-01-27T15:58:42.018Z,69.07
2018-01-27T16:01:09.687Z,60.67
2018-01-27T16:03:37.342Z,67.67
2018-01-27T16:06:05.332Z,75.20
2018-01-27T16:08:33.334Z,58.93
2018-01-27T16:11:01.773Z,87.93
2018-01-27T16:13:29.452Z,66.80
2018-01-27T16:15:57.137Z,73.83
2018-01-27T16:18:24.870Z,71.40
2018-01-27T16:20:52.667Z,82.33
2018-01-27T16:23:20.373Z,78.03
2018-01-27T16:25:48.011Z,72.80
2018-01-27T16:28:16.454Z,70.80
2018-01-27T16:30:44.153Z,82.23
2018-01-27T16:33:11.812Z,77.10
2018-01-27T16:35:40.253Z,66.33
2018-01-27T16:38:08.014Z,76.93
2018-01-27T16:40:35.660Z,72.57
2018-01-27T16:43:03.327Z,75.07
2018-01-27T16:45:30.996Z,85.83
2018-01-27T16:47:58.640Z,74.40
2018-01-27T16:50:26.346Z,81.37
2018-01-27T16:52:54.824Z,87.63
2018-01-27T16:55:23.240Z,79.13
2018-01-27T16:57:50.923Z,81.97
2018-01-27T17:00:18.600Z,88.60
2018-01-27T17:02:46.240Z,87.93
2018-01-27T17:05:13.914Z,90.23
2018-01-27T17:07:41.586Z,91.63
2018-01-27T17:10:09.246Z,93.23
2018-01-27T17:12:36.913Z,97.17
2018-01-27T17:15:04.608Z,84.47
2018-01-27T17:17:32.244Z,88.57
2018-01-27T17:20:00.693Z,85.63
2018-01-27T17:22:29.013Z,83.03
2018-01-27T17:24:56.682Z,98.13
2018-01-27T17:27:24.376Z,75.10
2018-01-27T17:29:52.055Z,88.73
2018-01-27T17:32:19.695Z,76.43
2018-01-27T17:34:47.446Z,87.37
2018-01-27T17:37:15.132Z,88.10
2018-01-27T17:39:42.781Z,93.30
2018-01-27T17:42:10.468Z,88.93
2018-01-27T17:44:38.162Z,95.33
2018-01-27T17:47:05.819Z,86.17
2018-01-27T17:49:34.260Z,84.47
2018-01-27T17:52:01.941Z,91.50
2018-01-27T17:54:30.383Z,98.40
2018-01-27T17:56:58.054Z,98.43
2018-01-27T17:59:25.872Z,91.70
2018-01-27T18:01:53.571Z,97.60
2018-01-27T18:04:21.430Z,92.23
2018-01-27T18:06:51.476Z,92.77
2018-01-27T18:09:19.494Z,95.53
2018-01-27T18:11:47.200Z,89.37
2018-01-27T18:14:15.226Z,95.87
2018-01-27T18:16:43.848Z,94.17
2018-01-27T18:19:11.553Z,85.57
2018-01-27T18:21:39.276Z,94.07
2018-01-27T18:24:07.475Z,83.70
2018-01-27T18:26:35.416Z,86.23
2018-01-27T18:29:03.617Z,81.73
2018-01-27T18:31:31.751Z,85.43
2018-01-27T18:33:59.798Z,84.87
2018-01-27T18:36:27.890Z,82.70
2018-01-27T18:38:55.880Z,89.40
2018-01-27T18:41:24.894Z,88.17
2018-01-27T18:43:52.903Z,123.20
2018-01-27T18:46:21.032Z,93.27
2018-01-27T18:48:49.219Z,88.67
2018-01-27T18:51:17.230Z,84.00
2018-01-27T18:53:46.027Z,89.73
2018-01-27T18:56:15.059Z,90.30
2018-01-27T18:58:43.126Z,89.20
2018-01-27T19:01:11.037Z,85.47
2018-01-27T19:03:39.018Z,76.90
2018-01-27T19:06:07.178Z,76.90
2018-01-27T19:08:35.949Z,91.67
2018-01-27T19:11:05.349Z,89.43
2018-01-27T19:13:33.473Z,114.07
2018-01-27T19:16:01.628Z,96.63
2018-01-27T19:18:29.606Z,76.50
2018-01-27T19:20:57.706Z,84.73
2018-01-27T19:23:25.841Z,80.20
2018-01-27T19:25:53.892Z,80.33
2018-01-27T19:28:22.038Z,95.47
2018-01-27T19:30:50.372Z,87.90
2018-01-27T19:33:18.431Z,82.17
2018-01-27T19:35:46.760Z,75.97
2018-01-27T19:38:14.827Z,90.13
2018-01-27T19:40:43.166Z,100.07
2018-01-27T19:43:11.237Z,76.47
2018-01-27T19:45:39.252Z,105.83
2018-01-27T19:48:07.216Z,80.13
2018-01-27T19:50:35.333Z,92.17
2018-01-27T19:53:03.360Z,79.10
2018-01-27T19:55:31.308Z,82.73
2018-01-27T19:57:59.490Z,79.40
2018-01-27T20:00:27.729Z,67.77
2018-01-27T20:02:56.015Z,133.37
2018-01-27T20:05:24.114Z,96.83
2018-01-27T20:07:52.117Z,82.17
2018-01-27T20:10:20.292Z,84.00
2018-01-27T20:12:48.306Z,84.67
2018-01-27T20:15:16.338Z,91.67
2018-01-27T20:17:45.136Z,96.07
2018-01-27T20:20:13.688Z,69.53
2018-01-27T20:22:42.150Z,84.67
2018-01-27T20:25:10.600Z,80.07
2018-01-27T20:27:38.317Z,69.00
2018-01-27T20:30:06.143Z,74.73
2018-01-27T20:32:34.033Z,95.00
2018-01-27T20:35:02.536Z,76.13
2018-01-27T20:37:30.290Z,74.17
2018-01-27T20:39:58.087Z,104.87
2018-01-27T20:42:26.067Z,87.90
2018-01-27T20:44:53.917Z,71.37
2018-01-27T20:47:21.815Z,69.47
2018-01-27T20:49:49.595Z,81.87
2018-01-27T20:52:17.294Z,91.50
2018-01-27T20:54:44.983Z,90.83
2018-01-27T20:57:12.743Z,81.97
2018-01-27T20:59:40.496Z,88.37
2018-01-27T21:02:09.026Z,81.83
2018-01-27T21:04:36.800Z,70.73
2018-01-27T21:07:04.500Z,75.40
2018-01-27T21:09:32.368Z,74.60
2018-01-27T21:12:00.206Z,79.23
2018-01-27T21:14:27.902Z,71.43
2018-01-27T21:16:55.576Z,72.57
2018-01-27T21:19:23.258Z,73.70
2018-01-27T21:21:50.948Z,78.67
2018-01-27T21:24:18.869Z,71.03
2018-01-27T21:26:46.680Z,72.57
2018-01-27T21:29:14.324Z,67.97
2018-01-27T21:31:42.057Z,74.27
2018-01-27T21:34:10.658Z,68.47
2018-01-27T21:36:38.602Z,67.57
2018-01-27T21:39:06.433Z,70.20
2018-01-27T21:41:34.235Z,69.40
2018-01-27T21:44:02.927Z,72.73
2018-01-27T21:46:31.510Z,70.07
2018-01-27T21:49:00.071Z,73.77
2018-01-27T21:51:27.756Z,73.67
2018-01-27T21:53:55.577Z,73.30
2018-01-27T21:56:23.362Z,61.17
2018-01-27T21:58:51.161Z,69.47
2018-01-27T22:01:18.893Z,71.00
2018-01-27T22:03:48.512Z,63.23
2018-01-27T22:06:16.340Z,75.97
2018-01-27T22:08:44.219Z,63.30
2018-01-27T22:11:13.552Z,73.00
2018-01-27T22:13:41.412Z,57.90
2018-01-27T22:16:09.337Z,67.57
2018-01-27T22:18:37.141Z,66.10
2018-01-27T22:21:05.621Z,70.63
2018-01-27T22:23:33.508Z,63.47
2018-01-27T22:26:01.239Z,62.80
2018-01-27T22:28:29.732Z,60.37
2018-01-27T22:30:58.282Z,64.63
2018-01-27T22:33:26.166Z,71.57
2018-01-27T22:35:54.104Z,65.17
2018-01-27T22:38:21.852Z,60.03
2018-01-27T22:40:50.552Z,61.23
2018-01-27T22:43:18.340Z,63.17
2018-01-27T22:45:46.187Z,54.93
2018-01-27T22:48:15.046Z,54.80
2018-01-27T22:50:42.805Z,50.80
2018-01-27T22:53:15.323Z,61.80
2018-01-27T22:55:43.084Z,55.13
2018-01-27T22:58:12.008Z,61.13
2018-01-27T23:00:40.019Z,58.37
2018-01-27T23:03:07.968Z,58.63
2018-01-27T23:05:35.844Z,63.90
2018-01-27T23:08:03.559Z,65.13
2018-01-27T23:10:32.079Z,66.17
2018-01-27T23:12:59.765Z,71.37
2018-01-27T23:15:27.797Z,59.30
2018-01-27T23:17:55.565Z,63.97
2018-01-27T23:20:23.292Z,63.13
2018-01-27T23:22:50.980Z,65.13
2018-01-27T23:25:18.867Z,67.00
2018-01-27T23:27:46.525Z,69.70
2018-01-27T23:30:14.262Z,70.60
2018-01-27T23:32:42.036Z,66.17
2018-01-27T23:35:10.510Z,64.73
2018-01-27T23:37:38.187Z,64.63
2018-01-27T23:40:05.870Z,69.33
2018-01-27T23:42:34.317Z,66.30
2018-01-27T23:45:01.984Z,71.50
2018-01-27T23:47:29.657Z,63.13
2018-01-27T23:49:57.390Z,58.97
2018-01-27T23:52:25.089Z,62.57
2018-01-27T23:54:52.851Z,60.50
2018-01-27T23:57:21.222Z,64.97
2018-01-27T23:59:49.736Z,61.83
